KASX/ASX METAR and TAF weather

Enter ICAO airport designator
Station Type Date Time Source
KASX METAR 2020/01/21 20:53 UTC NOAA

KASX 212053Z AUTO 20015G24KT 10SM CLR M04/M12 A3010 RMK AO2 PK WND 20028/2028 SLP212 T10441122 56033


Station Type Date Time Source
KASX Decoded METAR 2020/01/21 20:53 UTC NOAA

ASHLAND KENNEDY MEMORIAL, WI, United States (KASX) 46-33N 090-55W 251M
Jan 21, 2020 - 03:53 PM EST / 2020.01.21 2053 UTC
Wind: from the SSW (200 degrees) at 17 MPH (15 KT) gusting to 28 MPH (24 KT):0
Visibility: 10 mile(s):0
Sky conditions: clear
Temperature: 24.1 F (-4.4 C)
Windchill: 10 F (-12 C):1
Dew Point: 10.0 F (-12.2 C)
Relative Humidity: 54%
Pressure (altimeter): 30.1 in. Hg (1019 hPa)
Pressure tendency: 0.10 inches (3.3 hPa) lower than three hours ago
ob: KASX 212053Z AUTO 20015G24KT 10SM CLR M04/M12 A3010 RMK AO2 PK WND 20028/2028 SLP212 T10441122 56033
cycle: 21

Station Type Date Time Source
KASX TAF UTC NOAA

Error!

Example: see airport list